createdAt,value
2022-08-08T00:01:08.606Z,39.69
2022-08-08T00:04:05.576Z,40.52
2022-08-08T00:06:46.700Z,40.77
2022-08-08T00:09:52.378Z,39.97
2022-08-08T00:12:26.135Z,40.20
2022-08-08T00:15:06.818Z,40.56
2022-08-08T00:17:58.479Z,40.55
2022-08-08T00:20:41.922Z,40.81
2022-08-08T00:23:18.488Z,40.33
2022-08-08T00:25:52.859Z,39.91
2022-08-08T00:28:34.179Z,40.82
2022-08-08T00:32:21.178Z,40.03
2022-08-08T00:34:27.408Z,40.73
2022-08-08T00:37:03.516Z,40.57
2022-08-08T00:41:12.843Z,41.20
2022-08-08T00:43:19.712Z,42.26
2022-08-08T00:46:17.258Z,42.01
2022-08-08T00:49:22.377Z,41.74
2022-08-08T00:51:53.319Z,41.39
2022-08-08T00:54:43.575Z,41.22
2022-08-08T00:57:35.925Z,41.46
2022-08-08T01:00:14.448Z,41.53
2022-08-08T01:03:58.499Z,41.28
2022-08-08T01:06:11.873Z,41.09
2022-08-08T01:09:36.117Z,41.22
2022-08-08T01:12:11.391Z,42.12
2022-08-08T01:15:17.264Z,42.08
2022-08-08T01:18:50.486Z,43.03
2022-08-08T01:21:11.064Z,42.68
2022-08-08T01:24:13.425Z,41.76
2022-08-08T01:26:53.390Z,41.53
2022-08-08T01:29:35.158Z,41.33
2022-08-08T01:32:31.783Z,41.91
2022-08-08T01:35:38.358Z,42.62
2022-08-08T01:38:29.668Z,41.77
2022-08-08T01:41:15.878Z,41.75
2022-08-08T01:44:03.608Z,41.84
2022-08-08T01:46:47.716Z,41.48
2022-08-08T01:49:45.203Z,41.20
2022-08-08T01:52:33.437Z,39.70
2022-08-08T01:56:28.354Z,40.50
2022-08-08T01:58:38.678Z,40.49
2022-08-08T02:02:00.017Z,40.32
2022-08-08T02:04:56.911Z,39.83
2022-08-08T02:07:41.747Z,40.55
2022-08-08T02:10:44.732Z,40.68
2022-08-08T02:13:53.903Z,40.25
2022-08-08T02:16:35.744Z,41.17
2022-08-08T02:19:41.854Z,41.29
2022-08-08T02:22:32.377Z,41.13
2022-08-08T02:25:20.963Z,41.64
2022-08-08T02:28:04.042Z,42.25
2022-08-08T02:30:50.047Z,41.51
2022-08-08T02:34:00.522Z,41.16
2022-08-08T02:36:58.995Z,41.17
2022-08-08T02:39:42.043Z,41.29
2022-08-08T02:44:34.756Z,42.93
2022-08-08T02:45:58.807Z,42.29
2022-08-08T02:49:01.104Z,42.35
2022-08-08T02:52:11.398Z,42.58
2022-08-08T02:55:21.451Z,43.59
2022-08-08T02:58:08.525Z,43.38
2022-08-08T03:01:08.643Z,43.80
2022-08-08T03:05:01.008Z,43.20
2022-08-08T03:06:36.335Z,44.67
2022-08-08T03:09:22.745Z,45.84
2022-08-08T03:12:36.583Z,43.33
2022-08-08T03:15:58.111Z,43.08
2022-08-08T03:18:52.171Z,43.63
2022-08-08T03:21:40.806Z,43.81
2022-08-08T03:24:08.571Z,43.20
2022-08-08T03:26:42.764Z,42.77
2022-08-08T03:29:17.102Z,42.74
2022-08-08T03:32:08.590Z,42.18
2022-08-08T03:34:40.076Z,42.80
2022-08-08T03:37:59.019Z,42.66
2022-08-08T03:40:04.541Z,43.26
2022-08-08T03:42:32.767Z,43.34
2022-08-08T03:45:02.164Z,42.84
2022-08-08T03:48:02.722Z,43.15
2022-08-08T03:50:32.040Z,43.96
2022-08-08T03:53:13.465Z,42.88
2022-08-08T03:55:56.660Z,43.42
2022-08-08T03:58:35.761Z,43.22
2022-08-08T04:01:24.503Z,42.90
2022-08-08T04:03:58.675Z,43.63
2022-08-08T04:06:29.559Z,43.43
2022-08-08T04:09:10.832Z,42.83
2022-08-08T04:11:58.061Z,42.37
2022-08-08T04:14:35.373Z,42.67
2022-08-08T04:17:04.922Z,43.51
2022-08-08T04:19:43.545Z,42.97
2022-08-08T04:22:11.098Z,43.78
2022-08-08T04:24:41.440Z,46.35
2022-08-08T04:27:19.440Z,46.15
2022-08-08T04:30:00.982Z,44.50
2022-08-08T04:32:47.805Z,43.28
2022-08-08T04:35:15.946Z,44.57
2022-08-08T04:37:43.657Z,43.97
2022-08-08T04:40:13.219Z,44.40
2022-08-08T04:42:46.629Z,44.09
2022-08-08T04:45:26.377Z,43.43
2022-08-08T04:47:57.172Z,43.19
2022-08-08T04:50:29.151Z,43.99
2022-08-08T04:53:13.693Z,44.14
2022-08-08T04:55:56.069Z,44.26
2022-08-08T04:58:25.340Z,44.53
2022-08-08T05:00:53.777Z,44.46
2022-08-08T05:04:11.047Z,44.79
2022-08-08T05:06:12.982Z,45.65
2022-08-08T05:08:51.904Z,46.24
2022-08-08T05:11:23.761Z,47.69
2022-08-08T05:13:58.008Z,46.59
2022-08-08T05:16:51.430Z,46.46
2022-08-08T05:20:10.851Z,45.66
2022-08-08T05:22:07.633Z,45.52
2022-08-08T05:24:37.353Z,44.40
2022-08-08T05:27:05.937Z,45.85
2022-08-08T05:29:35.544Z,45.65
2022-08-08T05:32:07.640Z,45.67
2022-08-08T05:34:41.365Z,46.99
2022-08-08T05:37:17.013Z,46.36
2022-08-08T05:39:52.817Z,47.46
2022-08-08T05:42:30.931Z,46.90
2022-08-08T05:45:25.713Z,46.97
2022-08-08T05:48:00.597Z,46.57
2022-08-08T05:50:36.803Z,45.83
2022-08-08T05:53:23.122Z,46.68
2022-08-08T05:56:10.475Z,46.54
2022-08-08T05:58:56.829Z,48.35
2022-08-08T06:01:50.615Z,46.77
2022-08-08T06:04:23.496Z,47.46
2022-08-08T06:07:00.554Z,46.56
2022-08-08T06:10:00.618Z,46.96
2022-08-08T06:12:29.654Z,46.97
2022-08-08T06:15:06.461Z,46.98
2022-08-08T06:17:51.333Z,46.23
2022-08-08T06:20:27.350Z,46.66
2022-08-08T06:22:56.358Z,46.96
2022-08-08T06:25:33.260Z,46.60
2022-08-08T06:28:18.886Z,48.87
2022-08-08T06:30:48.472Z,47.11
2022-08-08T06:33:37.319Z,46.69
2022-08-08T06:36:10.117Z,45.77
2022-08-08T06:38:41.072Z,46.27
2022-08-08T06:41:13.391Z,46.30
2022-08-08T06:43:47.683Z,46.05
2022-08-08T06:46:26.211Z,46.01
2022-08-08T06:48:58.603Z,45.88
2022-08-08T06:51:46.660Z,47.08
2022-08-08T06:54:15.706Z,48.30
2022-08-08T06:56:51.216Z,47.07
2022-08-08T06:59:19.583Z,45.18
2022-08-08T07:02:26.963Z,47.88
2022-08-08T07:05:00.846Z,44.62
2022-08-08T07:07:37.003Z,43.99
2022-08-08T07:10:08.740Z,44.08
2022-08-08T07:12:43.318Z,42.95
2022-08-08T07:15:32.261Z,43.38
2022-08-08T07:18:36.999Z,43.14
2022-08-08T07:21:04.785Z,40.03
2022-08-08T07:24:01.426Z,40.15
2022-08-08T07:26:35.229Z,39.65
2022-08-08T07:29:07.990Z,39.00
2022-08-08T07:31:40.695Z,39.04
2022-08-08T07:34:10.477Z,39.20
2022-08-08T07:36:50.241Z,41.37
2022-08-08T07:39:29.428Z,40.37
2022-08-08T07:42:04.384Z,39.91
2022-08-08T07:44:40.382Z,38.83
2022-08-08T07:47:10.049Z,39.16
2022-08-08T07:49:40.081Z,38.67
2022-08-08T07:52:13.093Z,39.39
2022-08-08T07:55:09.347Z,38.23
2022-08-08T07:58:15.474Z,37.80
2022-08-08T08:00:59.992Z,37.47
2022-08-08T08:03:43.473Z,36.93
2022-08-08T08:06:14.206Z,36.43
2022-08-08T08:08:50.198Z,36.68
2022-08-08T08:11:23.291Z,36.46
2022-08-08T08:14:08.256Z,36.23
2022-08-08T08:16:41.142Z,35.67
2022-08-08T08:19:12.839Z,36.03
2022-08-08T08:21:57.261Z,36.11
2022-08-08T08:24:32.397Z,35.94
2022-08-08T08:27:03.614Z,35.38
2022-08-08T08:29:32.502Z,35.62
2022-08-08T08:32:03.236Z,35.81
2022-08-08T08:34:34.040Z,35.81
2022-08-08T08:37:07.639Z,35.70
2022-08-08T08:39:39.106Z,35.10
2022-08-08T08:42:35.117Z,35.00
2022-08-08T08:45:21.239Z,35.24
2022-08-08T08:47:54.298Z,35.08
2022-08-08T08:50:33.976Z,35.06
2022-08-08T08:53:28.016Z,35.44
2022-08-08T08:56:01.286Z,35.80
2022-08-08T08:58:37.986Z,34.89
2022-08-08T09:01:10.212Z,34.57
2022-08-08T09:03:47.834Z,34.68
2022-08-08T09:06:33.457Z,35.07
2022-08-08T09:09:07.175Z,34.78
2022-08-08T09:11:47.823Z,34.94
2022-08-08T09:14:26.104Z,35.59
2022-08-08T09:16:55.444Z,35.98
2022-08-08T09:22:02.791Z,35.16
2022-08-08T09:22:11.491Z,35.82
2022-08-08T09:24:40.151Z,35.67
2022-08-08T09:27:20.451Z,36.07
2022-08-08T09:30:09.825Z,38.61
2022-08-08T09:33:11.884Z,37.63
2022-08-08T09:35:37.386Z,37.32
2022-08-08T09:38:09.403Z,38.00
2022-08-08T09:40:53.925Z,37.96
2022-08-08T09:44:04.732Z,37.43
2022-08-08T09:46:25.400Z,37.65
2022-08-08T09:49:18.054Z,37.61
2022-08-08T09:52:07.467Z,37.84
2022-08-08T09:54:44.713Z,39.15
2022-08-08T09:57:19.016Z,38.79
2022-08-08T10:00:14.719Z,38.46
2022-08-08T10:02:42.009Z,37.89
2022-08-08T10:05:25.420Z,38.19
2022-08-08T10:07:59.852Z,38.12
2022-08-08T10:10:36.805Z,38.45
2022-08-08T10:13:30.029Z,37.17
2022-08-08T10:16:05.210Z,37.51
2022-08-08T10:18:35.060Z,38.25
2022-08-08T10:21:23.215Z,38.87
2022-08-08T10:23:57.907Z,38.52
2022-08-08T10:26:57.115Z,38.29
2022-08-08T10:30:00.366Z,37.96
2022-08-08T10:32:37.321Z,38.26
2022-08-08T10:35:20.545Z,38.03
2022-08-08T10:38:05.819Z,38.60
2022-08-08T10:40:38.050Z,37.96
2022-08-08T10:43:07.152Z,37.91
2022-08-08T10:45:55.745Z,38.96
2022-08-08T10:48:38.719Z,38.63
2022-08-08T10:51:26.590Z,38.48
2022-08-08T10:54:01.832Z,38.93
2022-08-08T10:56:34.510Z,40.47
2022-08-08T10:59:14.161Z,42.79
2022-08-08T11:01:46.740Z,42.74
2022-08-08T11:04:38.472Z,42.65
2022-08-08T11:07:07.297Z,42.81
2022-08-08T11:09:35.427Z,44.47
2022-08-08T11:12:12.598Z,44.60
2022-08-08T11:14:52.643Z,44.28
2022-08-08T11:17:57.815Z,44.94
2022-08-08T11:20:13.397Z,45.35
2022-08-08T11:22:41.494Z,45.52
2022-08-08T11:25:14.168Z,45.88
2022-08-08T11:27:44.516Z,46.30
2022-08-08T11:30:19.884Z,46.25
2022-08-08T11:32:48.671Z,46.35
2022-08-08T11:35:27.460Z,45.39
2022-08-08T11:38:43.485Z,45.30
2022-08-08T11:40:54.444Z,46.06
2022-08-08T11:43:25.991Z,45.67
2022-08-08T11:46:13.831Z,46.59
2022-08-08T11:48:47.159Z,47.63
2022-08-08T11:51:38.151Z,47.60
2022-08-08T11:54:26.875Z,48.84
2022-08-08T11:56:56.525Z,49.27
2022-08-08T11:59:58.401Z,49.25
2022-08-08T12:02:40.032Z,49.74
2022-08-08T12:05:12.252Z,49.50
2022-08-08T12:07:54.336Z,49.68
2022-08-08T12:10:27.526Z,50.78
2022-08-08T12:13:09.505Z,49.38
2022-08-08T12:15:46.803Z,50.09
2022-08-08T12:18:21.434Z,49.90
2022-08-08T12:20:55.021Z,50.09
2022-08-08T12:23:44.060Z,49.90
2022-08-08T12:26:28.164Z,50.40
2022-08-08T12:29:21.252Z,51.01
2022-08-08T12:32:17.009Z,49.49
2022-08-08T12:35:01.280Z,48.76
2022-08-08T12:37:43.329Z,49.00
2022-08-08T12:40:22.666Z,49.15
2022-08-08T12:42:52.959Z,50.11
2022-08-08T12:45:57.789Z,50.75
2022-08-08T12:48:37.444Z,50.19
2022-08-08T12:51:07.881Z,49.60
2022-08-08T12:53:58.626Z,50.14
2022-08-08T12:56:53.107Z,49.58
2022-08-08T12:59:27.344Z,49.67
2022-08-08T13:02:28.131Z,49.80
2022-08-08T13:04:58.181Z,48.61
2022-08-08T13:08:04.126Z,48.80
2022-08-08T13:10:32.831Z,48.12
2022-08-08T13:13:06.183Z,48.78
2022-08-08T13:15:36.320Z,48.19
2022-08-08T13:18:10.808Z,47.22
2022-08-08T13:20:45.782Z,46.26
2022-08-08T13:23:36.625Z,46.56
2022-08-08T13:26:13.297Z,45.70
2022-08-08T13:28:45.844Z,44.92
2022-08-08T13:31:17.197Z,47.29
2022-08-08T13:33:47.257Z,45.17
2022-08-08T13:36:26.290Z,47.03
2022-08-08T13:38:54.793Z,46.31
2022-08-08T13:41:39.366Z,46.55
2022-08-08T13:44:11.194Z,45.33
2022-08-08T13:46:39.876Z,44.38
2022-08-08T13:50:39.201Z,44.88
2022-08-08T13:52:06.869Z,43.47
2022-08-08T13:54:44.245Z,43.57
2022-08-08T13:57:17.135Z,43.18
2022-08-08T13:59:48.101Z,41.93
2022-08-08T14:02:31.109Z,43.17
2022-08-08T14:05:22.038Z,44.08
2022-08-08T14:07:53.010Z,42.93
2022-08-08T14:10:33.302Z,42.67
2022-08-08T14:13:09.875Z,42.68
2022-08-08T14:15:50.331Z,41.98
2022-08-08T14:18:36.531Z,42.12
2022-08-08T14:21:15.315Z,42.72
2022-08-08T14:24:07.820Z,43.75
2022-08-08T14:26:42.354Z,44.10
2022-08-08T14:29:30.636Z,44.29
2022-08-08T14:32:10.002Z,45.98
2022-08-08T14:34:42.865Z,45.52
2022-08-08T14:37:12.831Z,46.16
2022-08-08T14:39:48.584Z,47.03
2022-08-08T14:42:26.939Z,47.77
2022-08-08T14:44:56.711Z,48.03
2022-08-08T14:47:25.383Z,47.29
2022-08-08T14:50:21.381Z,48.54
2022-08-08T14:53:05.024Z,48.59
2022-08-08T14:55:41.498Z,48.47
2022-08-08T14:58:12.092Z,48.82
2022-08-08T15:00:45.123Z,48.89
2022-08-08T15:03:16.266Z,49.21
2022-08-08T15:05:54.775Z,49.16
2022-08-08T15:08:34.987Z,48.51
2022-08-08T15:11:07.455Z,47.83
2022-08-08T15:14:00.381Z,48.96
2022-08-08T15:16:28.281Z,48.23
2022-08-08T15:18:56.040Z,47.59
2022-08-08T15:21:27.508Z,47.86
2022-08-08T15:23:58.415Z,47.79
2022-08-08T15:26:28.840Z,48.34
2022-08-08T15:28:57.231Z,48.19
2022-08-08T15:31:55.711Z,49.03
2022-08-08T15:34:29.809Z,48.18
2022-08-08T15:37:03.254Z,48.75
2022-08-08T15:39:37.491Z,47.74
2022-08-08T15:42:10.315Z,47.95
2022-08-08T15:44:38.642Z,48.35
2022-08-08T15:47:16.191Z,49.28
2022-08-08T15:49:48.644Z,48.40
2022-08-08T15:52:17.789Z,49.07
2022-08-08T15:54:47.781Z,49.86
2022-08-08T15:57:19.167Z,50.54
2022-08-08T16:00:06.745Z,49.68
2022-08-08T16:02:43.993Z,49.92
2022-08-08T16:05:14.360Z,50.05
2022-08-08T16:07:52.926Z,50.73
2022-08-08T16:13:05.368Z,50.24
2022-08-08T16:13:30.069Z,49.50
2022-08-08T16:16:09.624Z,48.71
2022-08-08T16:18:44.633Z,48.45
2022-08-08T16:21:31.454Z,48.59
2022-08-08T16:24:04.573Z,48.44
2022-08-08T16:26:35.885Z,48.87
2022-08-08T16:29:08.947Z,47.95
2022-08-08T16:31:40.843Z,47.61
2022-08-08T16:34:09.925Z,48.64
2022-08-08T16:36:38.988Z,48.84
2022-08-08T16:39:09.858Z,48.22
2022-08-08T16:42:01.117Z,48.27
2022-08-08T16:44:33.887Z,47.27
2022-08-08T16:47:31.601Z,48.12
2022-08-08T16:50:14.770Z,49.00
2022-08-08T16:55:04.701Z,48.23
2022-08-08T16:55:55.693Z,47.90
2022-08-08T16:58:25.597Z,47.95
2022-08-08T17:00:55.095Z,47.76
2022-08-08T17:03:25.416Z,47.48
2022-08-08T17:06:39.779Z,48.17
2022-08-08T17:08:58.228Z,48.79
2022-08-08T17:11:28.474Z,49.14
2022-08-08T17:14:18.647Z,49.13
2022-08-08T17:16:57.866Z,49.88
2022-08-08T17:19:30.377Z,51.07
2022-08-08T17:22:06.161Z,51.88
2022-08-08T17:24:35.005Z,51.12
2022-08-08T17:27:04.596Z,52.85
2022-08-08T17:29:36.334Z,52.14
2022-08-08T17:32:11.004Z,52.58
2022-08-08T17:35:44.434Z,53.40
2022-08-08T17:37:27.550Z,52.83
2022-08-08T17:40:11.015Z,53.00
2022-08-08T17:42:41.616Z,52.95
2022-08-08T17:45:22.878Z,54.81
2022-08-08T17:47:53.914Z,55.92
2022-08-08T17:50:23.668Z,55.33
2022-08-08T17:52:57.551Z,55.24
2022-08-08T17:56:03.460Z,54.97
2022-08-08T17:58:13.345Z,53.38
2022-08-08T18:00:41.675Z,53.30
2022-08-08T18:03:13.928Z,54.48
2022-08-08T18:05:48.610Z,53.99
2022-08-08T18:08:36.974Z,55.60
2022-08-08T18:11:11.673Z,56.07
2022-08-08T18:13:43.345Z,56.59
2022-08-08T18:16:11.408Z,57.31
2022-08-08T18:18:45.381Z,57.07
2022-08-08T18:21:34.524Z,57.61
2022-08-08T18:24:17.624Z,54.75
2022-08-08T18:26:55.058Z,55.27
2022-08-08T18:29:27.396Z,55.13
2022-08-08T18:32:09.896Z,53.29
2022-08-08T18:34:42.579Z,53.26
2022-08-08T18:37:17.666Z,53.80
2022-08-08T18:39:58.449Z,53.98
2022-08-08T18:42:26.143Z,53.30
2022-08-08T18:44:57.456Z,54.91
2022-08-08T18:47:26.598Z,55.14
2022-08-08T18:49:58.873Z,54.45
2022-08-08T18:52:36.765Z,55.00
2022-08-08T18:55:09.764Z,54.72
2022-08-08T18:57:44.860Z,54.77
2022-08-08T19:00:22.146Z,55.85
2022-08-08T19:02:56.511Z,55.43
2022-08-08T19:05:32.390Z,56.88
2022-08-08T19:08:25.570Z,57.16
2022-08-08T19:10:59.023Z,56.29
2022-08-08T19:13:53.172Z,55.92
2022-08-08T19:16:19.415Z,55.45
2022-08-08T19:19:00.386Z,55.01
2022-08-08T19:21:32.872Z,55.93
2022-08-08T19:24:05.854Z,55.15
2022-08-08T19:26:37.527Z,57.12
2022-08-08T19:29:06.474Z,57.56
2022-08-08T19:31:35.391Z,57.79
2022-08-08T19:34:36.339Z,57.63
2022-08-08T19:36:58.539Z,58.92
2022-08-08T19:39:35.083Z,59.69
2022-08-08T19:42:07.141Z,60.44
2022-08-08T19:44:46.443Z,60.96
2022-08-08T19:47:23.436Z,60.65
2022-08-08T19:49:59.898Z,60.49
2022-08-08T19:52:36.864Z,59.39
2022-08-08T19:55:12.287Z,59.00
2022-08-08T19:57:42.533Z,58.21
2022-08-08T20:00:30.658Z,57.44
2022-08-08T20:03:00.759Z,59.06
2022-08-08T20:06:13.472Z,57.94
2022-08-08T20:08:37.434Z,58.30
2022-08-08T20:11:04.051Z,57.55
2022-08-08T20:14:33.055Z,58.35
2022-08-08T20:16:19.684Z,57.37
2022-08-08T20:18:52.915Z,58.17
2022-08-08T20:21:25.726Z,57.70
2022-08-08T20:23:58.261Z,58.75
2022-08-08T20:26:29.790Z,58.82
2022-08-08T20:28:58.226Z,58.43
2022-08-08T20:31:28.244Z,57.48
2022-08-08T20:34:30.008Z,57.19
2022-08-08T20:37:03.383Z,56.24
2022-08-08T20:39:39.349Z,56.80
2022-08-08T20:42:23.703Z,55.57
2022-08-08T20:44:57.872Z,54.48
2022-08-08T20:47:26.185Z,53.57
2022-08-08T20:49:57.576Z,53.42
2022-08-08T20:52:27.707Z,52.05
2022-08-08T20:54:56.516Z,52.75
2022-08-08T20:57:26.976Z,51.94
2022-08-08T20:59:56.571Z,53.56
2022-08-08T21:02:25.764Z,52.38
2022-08-08T21:05:00.923Z,52.90
2022-08-08T21:08:07.857Z,53.38
2022-08-08T21:10:20.867Z,52.04
2022-08-08T21:12:53.024Z,52.97
2022-08-08T21:16:06.290Z,51.23
2022-08-08T21:18:11.692Z,51.44
2022-08-08T21:20:41.908Z,50.45
2022-08-08T21:23:13.327Z,50.72
2022-08-08T21:25:48.922Z,51.24
2022-08-08T21:28:33.625Z,50.82
2022-08-08T21:31:21.971Z,50.22
2022-08-08T21:33:54.715Z,49.68
2022-08-08T21:36:28.492Z,49.38
2022-08-08T21:38:57.838Z,48.99
2022-08-08T21:41:38.730Z,48.56
2022-08-08T21:44:13.744Z,48.64
2022-08-08T21:48:06.099Z,48.98
2022-08-08T21:49:30.768Z,49.54
2022-08-08T21:54:18.583Z,50.30
2022-08-08T21:55:01.697Z,49.89
2022-08-08T21:57:42.465Z,50.18
2022-08-08T22:00:14.213Z,50.94
2022-08-08T22:02:44.349Z,50.68
2022-08-08T22:05:14.738Z,50.04
2022-08-08T22:07:47.507Z,50.54
2022-08-08T22:10:31.977Z,51.30
2022-08-08T22:13:16.908Z,51.32
2022-08-08T22:15:59.565Z,50.69
2022-08-08T22:18:33.123Z,51.00
2022-08-08T22:21:14.069Z,51.13
2022-08-08T22:23:50.462Z,52.18
2022-08-08T22:26:29.989Z,51.70
2022-08-08T22:29:04.626Z,51.90
2022-08-08T22:32:01.526Z,54.85
2022-08-08T22:34:39.325Z,59.57
2022-08-08T22:37:14.939Z,60.41
2022-08-08T22:40:00.126Z,60.04
2022-08-08T22:42:31.868Z,59.71
2022-08-08T22:45:12.333Z,59.24
2022-08-08T22:47:48.859Z,59.19
2022-08-08T22:50:27.505Z,61.76
2022-08-08T22:54:29.171Z,64.47
2022-08-08T22:56:07.105Z,64.22
2022-08-08T22:58:35.273Z,64.13
2022-08-08T23:01:26.604Z,62.03
2022-08-08T23:03:56.755Z,61.98
2022-08-08T23:06:25.268Z,61.77
2022-08-08T23:08:58.589Z,61.20
2022-08-08T23:11:31.252Z,60.58
2022-08-08T23:14:18.024Z,61.75
2022-08-08T23:16:57.922Z,63.70
2022-08-08T23:19:28.027Z,62.06
2022-08-08T23:22:04.450Z,61.41
2022-08-08T23:24:41.421Z,63.06
2022-08-08T23:27:11.335Z,61.37
2022-08-08T23:29:59.078Z,60.84
2022-08-08T23:32:26.803Z,61.12
2022-08-08T23:34:59.224Z,61.41
2022-08-08T23:38:00.859Z,63.12
2022-08-08T23:40:16.257Z,63.21
2022-08-08T23:42:45.210Z,63.89
2022-08-08T23:45:13.823Z,63.23
2022-08-08T23:49:00.795Z,62.45
2022-08-08T23:50:31.428Z,62.31
2022-08-08T23:53:05.120Z,62.10
2022-08-08T23:55:33.660Z,63.02
2022-08-08T23:58:31.879Z,63.01
